Kaisei Maru — JD3114 — position and weather

sailwx.info

Track history (hours):
 
Tides and Currents Weather Stations Pressure Air Temp Water Temp Dewpoint Dewpoint Depression Visibility Wind Speed Wind Dir Waves Ship Positions

Kaisei Maru

Last reported at 2017-Jun-20 10:09 UTC. Time now 2017-Jun-23 23:59 UTC.
Position N 34°37' E 134°57'.

Length 52 m; draft 3.9 m.

Type: Tanker. MMSI: 431001837.

Date/timePositionNaut miles runAvg speedWind from/ knotsBaromVisibWave heightAir tempDewpointWater temp
2017-Jun-20 10:09N 34°37' E 134°57'411.0
2017-Jun-20 09:49N 34°37' E 135°01'311.1
2017-Jun-20 09:30N 34°36' E 135°05'4 8.9
2017-Jun-20 09:00N 34°38' E 135°10'1 1.2
2017-Jun-20 08:30N 34°39' E 135°10'0 0.0
2017-Jun-20 08:00N 34°39' E 135°10'0 0.0
2017-Jun-20 07:30N 34°39' E 135°10'0 0.0
2017-Jun-20 07:00N 34°39' E 135°10'0 0.0
2017-Jun-20 06:30N 34°39' E 135°10'0 0.0
2017-Jun-20 06:00N 34°39' E 135°10'0 0.0
2017-Jun-20 05:30N 34°39' E 135°10'0 0.0
2017-Jun-20 05:00N 34°39' E 135°10'0 0.0
2017-Jun-20 04:30N 34°39' E 135°10'0 0.0
2017-Jun-20 04:00N 34°39' E 135°10'0 0.0
2017-Jun-20 03:30N 34°39' E 135°10'0 0.0
2017-Jun-20 03:00N 34°39' E 135°10'0 0.0
2017-Jun-20 02:30N 34°39' E 135°10'0 0.0
2017-Jun-20 02:00N 34°39' E 135°10'0 0.0
2017-Jun-20 01:30N 34°39' E 135°10'0 0.0
2017-Jun-20 01:00N 34°39' E 135°10'0 0.0
2017-Jun-20 00:30N 34°39' E 135°10'0 0.0
2017-Jun-20 00:00N 34°39' E 135°10'0 0.0
2017-Jun-19 23:30N 34°39' E 135°10'0 0.6
2017-Jun-19 23:00N 34°39' E 135°10'3 5.6
2017-Jun-19 22:30N 34°41' E 135°12'0 0.2
2017-Jun-19 22:00N 34°41' E 135°12'0 0.0
2017-Jun-19 21:30N 34°41' E 135°12'0 0.0
2017-Jun-19 21:00N 34°41' E 135°12'0 0.0
2017-Jun-19 20:30N 34°41' E 135°12'0 0.0
2017-Jun-19 20:00N 34°41' E 135°12'0 0.0
2017-Jun-19 19:30N 34°41' E 135°12'0 0.0
2017-Jun-19 19:00N 34°41' E 135°12'0 0.0
2017-Jun-19 18:30N 34°41' E 135°12'0 0.0
2017-Jun-19 18:00N 34°41' E 135°12'0 0.0
2017-Jun-19 17:30N 34°41' E 135°12'0 0.0
2017-Jun-19 17:00N 34°41' E 135°12'0 0.0
2017-Jun-19 16:30N 34°41' E 135°12'0 0.0
2017-Jun-19 16:00N 34°41' E 135°12'0 0.0
2017-Jun-19 15:30N 34°41' E 135°12'0 0.0
2017-Jun-19 15:00N 34°41' E 135°12'0 0.0
2017-Jun-19 14:30N 34°41' E 135°12'0 0.0
2017-Jun-19 13:30N 34°41' E 135°12'0 0.0
2017-Jun-19 13:00N 34°41' E 135°12'0 0.0
2017-Jun-19 12:30N 34°41' E 135°12'0 0.0
2017-Jun-19 12:00N 34°41' E 135°12'0 0.0
2017-Jun-19 11:30N 34°41' E 135°12'0 0.0
2017-Jun-19 11:00N 34°41' E 135°12'0 0.0
2017-Jun-19 10:30N 34°41' E 135°12'0 0.0
2017-Jun-19 10:00N 34°41' E 135°12'0 0.0
2017-Jun-19 09:29N 34°41' E 135°12'0 0.0
2017-Jun-19 09:00N 34°41' E 135°12'0 0.0
2017-Jun-19 08:30N 34°41' E 135°12'0 0.0
2017-Jun-19 08:00N 34°41' E 135°12'0 0.0
2017-Jun-19 07:30N 34°41' E 135°12'0 0.0
2017-Jun-19 07:00N 34°41' E 135°12'0 0.0
2017-Jun-19 06:30N 34°41' E 135°12'1 2.1
2017-Jun-19 06:00N 34°41' E 135°13'3 5.5
2017-Jun-19 05:30N 34°42' E 135°17'0 0.0
2017-Jun-19 05:00N 34°42' E 135°17'0 0.0
2017-Jun-19 04:30N 34°42' E 135°17'0 0.0
2017-Jun-19 04:00N 34°42' E 135°17'1 1.4
2017-Jun-19 03:30N 34°42' E 135°16'0 0.0
2017-Jun-19 03:00N 34°42' E 135°16'0 0.0
2017-Jun-19 02:30N 34°42' E 135°16'0 0.0
2017-Jun-19 02:00N 34°42' E 135°16'2 4.8
2017-Jun-19 01:30N 34°41' E 135°18'610.8
2017-Jun-19 00:59N 34°35' E 135°19'510.7
2017-Jun-19 00:30N 34°30' E 135°19'4 8.3
2017-Jun-19 00:00N 34°26' E 135°19'0 0.0
2017-Jun-18 23:30N 34°26' E 135°19'0 0.8
2017-Jun-18 23:00N 34°26' E 135°19'1 0.7
2017-Jun-18 22:16N 34°26' E 135°18'0 0.0
2017-Jun-18 21:53N 34°26' E 135°18'0 0.0
2017-Jun-18 21:30N 34°26' E 135°18'0 0.0
2017-Jun-18 20:42N 34°26' E 135°18'0 0.0
2017-Jun-18 20:29N 34°26' E 135°18'0 0.1
2017-Jun-18 19:51N 34°26' E 135°19'0 0.0
2017-Jun-18 19:24N 34°26' E 135°19'0 0.0
2017-Jun-18 18:58N 34°26' E 135°19'0 0.0
2017-Jun-18 18:26N 34°26' E 135°19'0 0.0
2017-Jun-18 17:46N 34°26' E 135°19'0 0.0
2017-Jun-18 17:28N 34°26' E 135°19'0 0.0
2017-Jun-18 16:58N 34°26' E 135°19'0 0.1
2017-Jun-18 16:30N 34°26' E 135°18'2 5.0
2017-Jun-18 16:00N 34°25' E 135°16'510.6
2017-Jun-18 15:30N 34°22' E 135°11'510.8
2017-Jun-18 15:00N 34°19' E 135°05'1010.4
2017-Jun-18 14:00N 34°10' E 135°00'  
2017-Jun-13 07:46N 34°11' E 135°01'311.8
2017-Jun-13 07:30N 34°14' E 135°02'1411.4
2017-Jun-13 06:16N 34°26' E 135°10'311.1
2017-Jun-13 06:00N 34°28' E 135°12'510.5
2017-Jun-13 05:30N 34°33' E 135°16'510.2
2017-Jun-13 05:00N 34°37' E 135°19'5 9.9
2017-Jun-13 04:30N 34°41' E 135°23'2 0.8
2017-Jun-13 02:22N 34°42' E 135°24'0 0.0
2017-Jun-13 00:33N 34°42' E 135°24'0 0.0
2017-Jun-13 00:13N 34°42' E 135°24'0 0.0
2017-Jun-13 00:00N 34°42' E 135°24'0 0.0
2017-Jun-12 23:30N 34°42' E 135°24'0 0.0
2017-Jun-12 23:00N 34°42' E 135°24'0 0.0
2017-Jun-12 22:30N 34°42' E 135°24'3 7.0
2017-Jun-12 22:00N 34°41' E 135°20'5 9.9
2017-Jun-12 21:30N 34°41' E 135°14'1 2.9
2017-Jun-12 21:00N 34°41' E 135°12'0 0.0
2017-Jun-12 20:30N 34°41' E 135°12'0 0.0
2017-Jun-12 20:00N 34°41' E 135°12'0 0.0
2017-Jun-12 19:30N 34°41' E 135°12'0 0.0
2017-Jun-12 19:00N 34°41' E 135°12'0 0.0
2017-Jun-12 18:30N 34°41' E 135°12'0 0.0
2017-Jun-12 18:00N 34°41' E 135°12'0 0.0
2017-Jun-12 17:30N 34°41' E 135°12'0 0.0
2017-Jun-12 17:00N 34°41' E 135°12'0 0.0
2017-Jun-12 16:30N 34°41' E 135°12'0 0.0
2017-Jun-12 16:00N 34°41' E 135°12'0 0.0
2017-Jun-12 15:30N 34°41' E 135°12'0 0.0
2017-Jun-12 15:00N 34°41' E 135°12'0 0.0
2017-Jun-12 14:30N 34°41' E 135°12'0 0.0
2017-Jun-12 13:30N 34°41' E 135°12'0 0.0
2017-Jun-12 13:00N 34°41' E 135°12'0 0.0
2017-Jun-12 12:30N 34°41' E 135°12'0 0.0
2017-Jun-12 12:00N 34°41' E 135°12'0 0.0
2017-Jun-12 11:30N 34°41' E 135°12'0 0.0
2017-Jun-12 11:00N 34°41' E 135°12'0 0.0
2017-Jun-12 10:30N 34°41' E 135°12'0 0.0
2017-Jun-12 10:00N 34°41' E 135°12'0 0.0
2017-Jun-12 09:30N 34°41' E 135°12'0 0.0
2017-Jun-12 09:00N 34°41' E 135°12'0 0.0
2017-Jun-12 08:30N 34°41' E 135°12'0 0.0
2017-Jun-12 08:00N 34°41' E 135°12'0 0.0
2017-Jun-12 07:30N 34°41' E 135°12'0 0.0
2017-Jun-12 07:00N 34°41' E 135°12'0 0.0
2017-Jun-12 06:30N 34°41' E 135°12'0 0.0
2017-Jun-12 06:00N 34°41' E 135°12'1 2.6
2017-Jun-12 05:30N 34°41' E 135°14'510.3
2017-Jun-12 05:00N 34°41' E 135°20'4 7.2
2017-Jun-12 04:30N 34°42' E 135°24'0 0.0
2017-Jun-12 03:54N 34°42' E 135°24'0 0.0
2017-Jun-12 01:24N 34°42' E 135°24'0 0.0
2017-Jun-12 00:57N 34°42' E 135°24'0 0.0
2017-Jun-12 00:24N 34°42' E 135°24'0 0.0
2017-Jun-12 00:00N 34°42' E 135°24'0 0.0
2017-Jun-11 23:30N 34°42' E 135°24'0 1.0
2017-Jun-11 23:00N 34°41' E 135°24'4 7.6
2017-Jun-11 22:30N 34°41' E 135°20'510.2
2017-Jun-11 22:00N 34°41' E 135°13'1 1.9
2017-Jun-11 21:30N 34°41' E 135°12'0 0.0
2017-Jun-11 21:00N 34°41' E 135°12'0 0.0
2017-Jun-11 20:30N 34°41' E 135°12'0 0.0
2017-Jun-11 20:00N 34°41' E 135°12'0 0.0
2017-Jun-11 19:30N 34°41' E 135°12'0 0.0
2017-Jun-11 19:00N 34°41' E 135°12'0 0.0
2017-Jun-11 18:30N 34°41' E 135°12'0 0.0
2017-Jun-11 18:00N 34°41' E 135°12'0 0.0
2017-Jun-11 17:30N 34°41' E 135°12'0 0.0
2017-Jun-11 17:00N 34°41' E 135°12'0 0.0
2017-Jun-11 16:30N 34°41' E 135°12'0 0.0
2017-Jun-11 16:00N 34°41' E 135°12'0 0.0
2017-Jun-11 15:30N 34°41' E 135°12'0 0.0
2017-Jun-11 15:00N 34°41' E 135°12'0 0.0
2017-Jun-11 14:30N 34°41' E 135°12'0 0.0
2017-Jun-11 13:30N 34°41' E 135°12'0 0.0
2017-Jun-11 13:00N 34°41' E 135°12'0 0.0
2017-Jun-11 12:30N 34°41' E 135°12'0 0.0
2017-Jun-11 12:00N 34°41' E 135°12'0 0.0
2017-Jun-11 11:30N 34°41' E 135°12'0 0.0
2017-Jun-11 11:00N 34°41' E 135°12'0 0.0
2017-Jun-11 10:30N 34°41' E 135°12'0 0.0
2017-Jun-11 10:00N 34°41' E 135°12'0 0.0
2017-Jun-11 09:30N 34°41' E 135°12'0 0.0
2017-Jun-11 09:00N 34°41' E 135°12'0 0.0
2017-Jun-11 08:30N 34°41' E 135°12'0 0.0
2017-Jun-11 08:00N 34°41' E 135°12'0 0.8
2017-Jun-11 07:31N 34°41' E 135°12'610.9
2017-Jun-11 07:00N 34°36' E 135°08'611.2
2017-Jun-11 06:30N 34°37' E 135°01'  
Track history (hours):
 
Tides and Currents Weather Stations Pressure Air Temp Water Temp Dewpoint Dewpoint Depression Visibility Wind Speed Wind Dir Waves Ship Positions

Kaisei Maru

Last reported at 2017-Jun-20 10:09 UTC. Time now 2017-Jun-23 23:59 UTC.
Position N 34°37' E 134°57'.

Length 52 m; draft 3.9 m.

Type: Tanker. MMSI: 431001837.

Date/timePositionNaut miles runAvg speedWind from/ knotsBaromVisibWave heightAir tempDewpointWater temp
2017-Jun-20 10:09N 34°37' E 134°57'411.0
2017-Jun-20 09:49N 34°37' E 135°01'311.1
2017-Jun-20 09:30N 34°36' E 135°05'4 8.9
2017-Jun-20 09:00N 34°38' E 135°10'1 1.2
2017-Jun-20 08:30N 34°39' E 135°10'0 0.0
2017-Jun-20 08:00N 34°39' E 135°10'0 0.0
2017-Jun-20 07:30N 34°39' E 135°10'0 0.0
2017-Jun-20 07:00N 34°39' E 135°10'0 0.0
2017-Jun-20 06:30N 34°39' E 135°10'0 0.0
2017-Jun-20 06:00N 34°39' E 135°10'0 0.0
2017-Jun-20 05:30N 34°39' E 135°10'0 0.0
2017-Jun-20 05:00N 34°39' E 135°10'0 0.0
2017-Jun-20 04:30N 34°39' E 135°10'0 0.0
2017-Jun-20 04:00N 34°39' E 135°10'0 0.0
2017-Jun-20 03:30N 34°39' E 135°10'0 0.0
2017-Jun-20 03:00N 34°39' E 135°10'0 0.0
2017-Jun-20 02:30N 34°39' E 135°10'0 0.0
2017-Jun-20 02:00N 34°39' E 135°10'0 0.0
2017-Jun-20 01:30N 34°39' E 135°10'0 0.0
2017-Jun-20 01:00N 34°39' E 135°10'0 0.0
2017-Jun-20 00:30N 34°39' E 135°10'0 0.0
2017-Jun-20 00:00N 34°39' E 135°10'0 0.0
2017-Jun-19 23:30N 34°39' E 135°10'0 0.6
2017-Jun-19 23:00N 34°39' E 135°10'3 5.6
2017-Jun-19 22:30N 34°41' E 135°12'0 0.2
2017-Jun-19 22:00N 34°41' E 135°12'0 0.0
2017-Jun-19 21:30N 34°41' E 135°12'0 0.0
2017-Jun-19 21:00N 34°41' E 135°12'0 0.0
2017-Jun-19 20:30N 34°41' E 135°12'0 0.0
2017-Jun-19 20:00N 34°41' E 135°12'0 0.0
2017-Jun-19 19:30N 34°41' E 135°12'0 0.0
2017-Jun-19 19:00N 34°41' E 135°12'0 0.0
2017-Jun-19 18:30N 34°41' E 135°12'0 0.0
2017-Jun-19 18:00N 34°41' E 135°12'0 0.0
2017-Jun-19 17:30N 34°41' E 135°12'0 0.0
2017-Jun-19 17:00N 34°41' E 135°12'0 0.0
2017-Jun-19 16:30N 34°41' E 135°12'0 0.0
2017-Jun-19 16:00N 34°41' E 135°12'0 0.0
2017-Jun-19 15:30N 34°41' E 135°12'0 0.0
2017-Jun-19 15:00N 34°41' E 135°12'0 0.0
2017-Jun-19 14:30N 34°41' E 135°12'0 0.0
2017-Jun-19 13:30N 34°41' E 135°12'0 0.0
2017-Jun-19 13:00N 34°41' E 135°12'0 0.0
2017-Jun-19 12:30N 34°41' E 135°12'0 0.0
2017-Jun-19 12:00N 34°41' E 135°12'0 0.0
2017-Jun-19 11:30N 34°41' E 135°12'0 0.0
2017-Jun-19 11:00N 34°41' E 135°12'0 0.0
2017-Jun-19 10:30N 34°41' E 135°12'0 0.0
2017-Jun-19 10:00N 34°41' E 135°12'0 0.0
2017-Jun-19 09:29N 34°41' E 135°12'0 0.0
2017-Jun-19 09:00N 34°41' E 135°12'0 0.0
2017-Jun-19 08:30N 34°41' E 135°12'0 0.0
2017-Jun-19 08:00N 34°41' E 135°12'0 0.0
2017-Jun-19 07:30N 34°41' E 135°12'0 0.0
2017-Jun-19 07:00N 34°41' E 135°12'0 0.0
2017-Jun-19 06:30N 34°41' E 135°12'1 2.1
2017-Jun-19 06:00N 34°41' E 135°13'3 5.5
2017-Jun-19 05:30N 34°42' E 135°17'0 0.0
2017-Jun-19 05:00N 34°42' E 135°17'0 0.0
2017-Jun-19 04:30N 34°42' E 135°17'0 0.0
2017-Jun-19 04:00N 34°42' E 135°17'1 1.4
2017-Jun-19 03:30N 34°42' E 135°16'0 0.0
2017-Jun-19 03:00N 34°42' E 135°16'0 0.0
2017-Jun-19 02:30N 34°42' E 135°16'0 0.0
2017-Jun-19 02:00N 34°42' E 135°16'2 4.8
2017-Jun-19 01:30N 34°41' E 135°18'610.8
2017-Jun-19 00:59N 34°35' E 135°19'510.7
2017-Jun-19 00:30N 34°30' E 135°19'4 8.3
2017-Jun-19 00:00N 34°26' E 135°19'0 0.0
2017-Jun-18 23:30N 34°26' E 135°19'0 0.8
2017-Jun-18 23:00N 34°26' E 135°19'1 0.7
2017-Jun-18 22:16N 34°26' E 135°18'0 0.0
2017-Jun-18 21:53N 34°26' E 135°18'0 0.0
2017-Jun-18 21:30N 34°26' E 135°18'0 0.0
2017-Jun-18 20:42N 34°26' E 135°18'0 0.0
2017-Jun-18 20:29N 34°26' E 135°18'0 0.1
2017-Jun-18 19:51N 34°26' E 135°19'0 0.0
2017-Jun-18 19:24N 34°26' E 135°19'0 0.0
2017-Jun-18 18:58N 34°26' E 135°19'0 0.0
2017-Jun-18 18:26N 34°26' E 135°19'0 0.0
2017-Jun-18 17:46N 34°26' E 135°19'0 0.0
2017-Jun-18 17:28N 34°26' E 135°19'0 0.0
2017-Jun-18 16:58N 34°26' E 135°19'0 0.1
2017-Jun-18 16:30N 34°26' E 135°18'2 5.0
2017-Jun-18 16:00N 34°25' E 135°16'510.6
2017-Jun-18 15:30N 34°22' E 135°11'510.8
2017-Jun-18 15:00N 34°19' E 135°05'1010.4
2017-Jun-18 14:00N 34°10' E 135°00'  
2017-Jun-13 07:46N 34°11' E 135°01'311.8
2017-Jun-13 07:30N 34°14' E 135°02'1411.4
2017-Jun-13 06:16N 34°26' E 135°10'311.1
2017-Jun-13 06:00N 34°28' E 135°12'510.5
2017-Jun-13 05:30N 34°33' E 135°16'510.2
2017-Jun-13 05:00N 34°37' E 135°19'5 9.9
2017-Jun-13 04:30N 34°41' E 135°23'2 0.8
2017-Jun-13 02:22N 34°42' E 135°24'0 0.0
2017-Jun-13 00:33N 34°42' E 135°24'0 0.0
2017-Jun-13 00:13N 34°42' E 135°24'0 0.0
2017-Jun-13 00:00N 34°42' E 135°24'0 0.0
2017-Jun-12 23:30N 34°42' E 135°24'0 0.0
2017-Jun-12 23:00N 34°42' E 135°24'0 0.0
2017-Jun-12 22:30N 34°42' E 135°24'3 7.0
2017-Jun-12 22:00N 34°41' E 135°20'5 9.9
2017-Jun-12 21:30N 34°41' E 135°14'1 2.9
2017-Jun-12 21:00N 34°41' E 135°12'0 0.0
2017-Jun-12 20:30N 34°41' E 135°12'0 0.0
2017-Jun-12 20:00N 34°41' E 135°12'0 0.0
2017-Jun-12 19:30N 34°41' E 135°12'0 0.0
2017-Jun-12 19:00N 34°41' E 135°12'0 0.0
2017-Jun-12 18:30N 34°41' E 135°12'0 0.0
2017-Jun-12 18:00N 34°41' E 135°12'0 0.0
2017-Jun-12 17:30N 34°41' E 135°12'0 0.0
2017-Jun-12 17:00N 34°41' E 135°12'0 0.0
2017-Jun-12 16:30N 34°41' E 135°12'0 0.0
2017-Jun-12 16:00N 34°41' E 135°12'0 0.0
2017-Jun-12 15:30N 34°41' E 135°12'0 0.0
2017-Jun-12 15:00N 34°41' E 135°12'0 0.0
2017-Jun-12 14:30N 34°41' E 135°12'0 0.0
2017-Jun-12 13:30N 34°41' E 135°12'0 0.0
2017-Jun-12 13:00N 34°41' E 135°12'0 0.0
2017-Jun-12 12:30N 34°41' E 135°12'0 0.0
2017-Jun-12 12:00N 34°41' E 135°12'0 0.0
2017-Jun-12 11:30N 34°41' E 135°12'0 0.0
2017-Jun-12 11:00N 34°41' E 135°12'0 0.0
2017-Jun-12 10:30N 34°41' E 135°12'0 0.0
2017-Jun-12 10:00N 34°41' E 135°12'0 0.0
2017-Jun-12 09:30N 34°41' E 135°12'0 0.0
2017-Jun-12 09:00N 34°41' E 135°12'0 0.0
2017-Jun-12 08:30N 34°41' E 135°12'0 0.0
2017-Jun-12 08:00N 34°41' E 135°12'0 0.0
2017-Jun-12 07:30N 34°41' E 135°12'0 0.0
2017-Jun-12 07:00N 34°41' E 135°12'0 0.0
2017-Jun-12 06:30N 34°41' E 135°12'0 0.0
2017-Jun-12 06:00N 34°41' E 135°12'1 2.6
2017-Jun-12 05:30N 34°41' E 135°14'510.3
2017-Jun-12 05:00N 34°41' E 135°20'4 7.2
2017-Jun-12 04:30N 34°42' E 135°24'0 0.0
2017-Jun-12 03:54N 34°42' E 135°24'0 0.0
2017-Jun-12 01:24N 34°42' E 135°24'0 0.0
2017-Jun-12 00:57N 34°42' E 135°24'0 0.0
2017-Jun-12 00:24N 34°42' E 135°24'0 0.0
2017-Jun-12 00:00N 34°42' E 135°24'0 0.0
2017-Jun-11 23:30N 34°42' E 135°24'0 1.0
2017-Jun-11 23:00N 34°41' E 135°24'4 7.6
2017-Jun-11 22:30N 34°41' E 135°20'510.2
2017-Jun-11 22:00N 34°41' E 135°13'1 1.9
2017-Jun-11 21:30N 34°41' E 135°12'0 0.0
2017-Jun-11 21:00N 34°41' E 135°12'0 0.0
2017-Jun-11 20:30N 34°41' E 135°12'0 0.0
2017-Jun-11 20:00N 34°41' E 135°12'0 0.0
2017-Jun-11 19:30N 34°41' E 135°12'0 0.0
2017-Jun-11 19:00N 34°41' E 135°12'0 0.0
2017-Jun-11 18:30N 34°41' E 135°12'0 0.0
2017-Jun-11 18:00N 34°41' E 135°12'0 0.0
2017-Jun-11 17:30N 34°41' E 135°12'0 0.0
2017-Jun-11 17:00N 34°41' E 135°12'0 0.0
2017-Jun-11 16:30N 34°41' E 135°12'0 0.0
2017-Jun-11 16:00N 34°41' E 135°12'0 0.0
2017-Jun-11 15:30N 34°41' E 135°12'0 0.0
2017-Jun-11 15:00N 34°41' E 135°12'0 0.0
2017-Jun-11 14:30N 34°41' E 135°12'0 0.0
2017-Jun-11 13:30N 34°41' E 135°12'0 0.0
2017-Jun-11 13:00N 34°41' E 135°12'0 0.0
2017-Jun-11 12:30N 34°41' E 135°12'0 0.0
2017-Jun-11 12:00N 34°41' E 135°12'0 0.0
2017-Jun-11 11:30N 34°41' E 135°12'0 0.0
2017-Jun-11 11:00N 34°41' E 135°12'0 0.0
2017-Jun-11 10:30N 34°41' E 135°12'0 0.0
2017-Jun-11 10:00N 34°41' E 135°12'0 0.0
2017-Jun-11 09:30N 34°41' E 135°12'0 0.0
2017-Jun-11 09:00N 34°41' E 135°12'0 0.0
2017-Jun-11 08:30N 34°41' E 135°12'0 0.0
2017-Jun-11 08:00N 34°41' E 135°12'0 0.8
2017-Jun-11 07:31N 34°41' E 135°12'610.9
2017-Jun-11 07:00N 34°36' E 135°08'611.2
2017-Jun-11 06:30N 34°37' E 135°01'  

Dump ship's entire track history